Terminal Aerodrome Forecast
Issued by NWS

Home | Current Version | Previous Version | Text Only | Print | Product List | Glossary On
Versions: 1 2 3 4 5 6 7 8 9 10 11 12 13 14
000
FTAK31 PAFA 202327
TAFAUN
TAF
PAUN 202327Z 2100/2124 31007KT P6SM SKC
     FM210400 06008KT P6SM SKC
     FM211600 09008KT P6SM SCT050 BKN200=

USA.gov is the U.S. government's official web portal to all federal, state and local government web resources and services.